Terminal Aerodrome Forecast
Issued by NWS Boston, MA

Home | Current Version | Previous Version | Text Only | Print | Product List | Glossary On
Versions: 1 2 3 4 5 6 7 8 9 10 11 12 13 14 15 16 17 18 19 20 21 22 23 24 25
000
FTUS41 KBOX 220538
TAFBDL
TAF
KBDL 220538Z 2206/2312 30006KT P6SM SCT070 BKN250
     FM221500 32005KT P6SM BKN080 OVC250
     FM230500 01004KT P6SM OVC090
     FM230600 02004KT P6SM VCSH OVC080
     FM231100 03006KT P6SM BKN110=

USA.gov is the U.S. government's official web portal to all federal, state and local government web resources and services.